sensor_id;sensor_type;location;lat;lon;timestamp;pressure;altitude;pressure_sealevel;temperature;humidity
27685;BME280;46113;50.130;8.526;2023-06-19T00:00:29;98622.28;;;17.28;49.99
27685;BME280;46113;50.130;8.526;2023-06-19T00:02:59;98627.31;;;17.31;50.75
27685;BME280;46113;50.130;8.526;2023-06-19T00:05:26;98619.59;;;17.28;51.96
27685;BME280;46113;50.130;8.526;2023-06-19T00:07:53;98621.03;;;17.22;51.93
27685;BME280;46113;50.130;8.526;2023-06-19T00:10:19;98619.50;;;17.19;50.92
27685;BME280;46113;50.130;8.526;2023-06-19T00:12:47;98624.72;;;17.11;51.62
27685;BME280;46113;50.130;8.526;2023-06-19T00:15:14;98620.09;;;17.13;51.67
27685;BME280;46113;50.130;8.526;2023-06-19T00:17:40;98616.56;;;17.13;52.17
27685;BME280;46113;50.130;8.526;2023-06-19T00:20:08;98610.94;;;17.16;52.30
27685;BME280;46113;50.130;8.526;2023-06-19T00:22:35;98610.09;;;17.15;53.33
27685;BME280;46113;50.130;8.526;2023-06-19T00:25:03;98602.91;;;17.16;53.40
27685;BME280;46113;50.130;8.526;2023-06-19T00:27:29;98600.25;;;17.16;53.14
27685;BME280;46113;50.130;8.526;2023-06-19T00:29:56;98590.88;;;17.02;51.65
27685;BME280;46113;50.130;8.526;2023-06-19T00:32:29;98589.91;;;17.03;52.22
27685;BME280;46113;50.130;8.526;2023-06-19T00:34:56;98590.31;;;16.98;52.04
27685;BME280;46113;50.130;8.526;2023-06-19T00:37:25;98593.44;;;16.93;52.05
27685;BME280;46113;50.130;8.526;2023-06-19T00:39:52;98584.44;;;16.94;52.09
27685;BME280;46113;50.130;8.526;2023-06-19T00:42:19;98580.78;;;16.95;51.57
27685;BME280;46113;50.130;8.526;2023-06-19T00:44:46;98578.56;;;16.91;52.07
27685;BME280;46113;50.130;8.526;2023-06-19T00:47:13;98581.38;;;16.89;51.67
27685;BME280;46113;50.130;8.526;2023-06-19T00:49:40;98572.28;;;16.82;51.20
27685;BME280;46113;50.130;8.526;2023-06-19T00:52:07;98576.47;;;16.85;51.29
27685;BME280;46113;50.130;8.526;2023-06-19T00:54:34;98579.84;;;16.87;51.01
27685;BME280;46113;50.130;8.526;2023-06-19T00:57:02;98580.53;;;16.89;50.33
27685;BME280;46113;50.130;8.526;2023-06-19T00:59:29;98577.44;;;16.93;51.19
27685;BME280;46113;50.130;8.526;2023-06-19T01:01:56;98578.97;;;16.86;51.26
27685;BME280;46113;50.130;8.526;2023-06-19T01:04:23;98572.09;;;16.84;51.75
27685;BME280;46113;50.130;8.526;2023-06-19T01:07:00;98576.91;;;16.80;51.12
27685;BME280;46113;50.130;8.526;2023-06-19T01:09:33;98579.31;;;16.73;51.80
27685;BME280;46113;50.130;8.526;2023-06-19T01:12:15;98576.34;;;16.76;51.33
27685;BME280;46113;50.130;8.526;2023-06-19T01:15:00;98568.22;;;16.78;50.99
27685;BME280;46113;50.130;8.526;2023-06-19T01:17:28;98568.06;;;16.79;51.82
27685;BME280;46113;50.130;8.526;2023-06-19T01:19:56;98565.53;;;16.68;50.62
27685;BME280;46113;50.130;8.526;2023-06-19T01:22:32;98567.78;;;16.63;51.08
27685;BME280;46113;50.130;8.526;2023-06-19T01:24:59;98564.72;;;16.58;50.78
27685;BME280;46113;50.130;8.526;2023-06-19T01:27:26;98558.56;;;16.57;51.95
27685;BME280;46113;50.130;8.526;2023-06-19T01:29:59;98554.75;;;16.50;51.59
27685;BME280;46113;50.130;8.526;2023-06-19T01:35:30;98547.91;;;16.37;51.23
27685;BME280;46113;50.130;8.526;2023-06-19T01:37:57;98549.47;;;16.40;51.16
27685;BME280;46113;50.130;8.526;2023-06-19T01:40:27;98551.16;;;16.21;50.62
27685;BME280;46113;50.130;8.526;2023-06-19T01:42:59;98541.19;;;16.23;49.53
27685;BME280;46113;50.130;8.526;2023-06-19T01:45:29;98538.66;;;16.32;48.92
27685;BME280;46113;50.130;8.526;2023-06-19T01:47:56;98527.84;;;16.23;50.20
27685;BME280;46113;50.130;8.526;2023-06-19T01:50:23;98532.34;;;16.13;49.60
27685;BME280;46113;50.130;8.526;2023-06-19T01:52:51;98527.91;;;16.03;49.59
27685;BME280;46113;50.130;8.526;2023-06-19T01:55:18;98530.69;;;16.02;49.66
27685;BME280;46113;50.130;8.526;2023-06-19T01:57:45;98525.66;;;15.89;46.73
27685;BME280;46113;50.130;8.526;2023-06-19T02:00:15;98532.97;;;15.97;48.87
27685;BME280;46113;50.130;8.526;2023-06-19T02:02:41;98536.88;;;15.93;48.03
27685;BME280;46113;50.130;8.526;2023-06-19T02:05:11;98537.16;;;15.99;48.56
27685;BME280;46113;50.130;8.526;2023-06-19T02:07:38;98540.41;;;15.93;45.74
27685;BME280;46113;50.130;8.526;2023-06-19T02:10:05;98543.91;;;15.94;47.09
27685;BME280;46113;50.130;8.526;2023-06-19T02:12:32;98538.88;;;15.91;48.02
27685;BME280;46113;50.130;8.526;2023-06-19T02:14:59;98549.31;;;15.72;48.27
27685;BME280;46113;50.130;8.526;2023-06-19T02:17:26;98542.75;;;15.76;48.41
27685;BME280;46113;50.130;8.526;2023-06-19T02:19:52;98548.63;;;15.70;49.58
27685;BME280;46113;50.130;8.526;2023-06-19T02:22:19;98550.63;;;15.68;49.76
27685;BME280;46113;50.130;8.526;2023-06-19T02:24:46;98548.66;;;15.60;50.60
27685;BME280;46113;50.130;8.526;2023-06-19T02:27:12;98557.34;;;15.53;50.65
27685;BME280;46113;50.130;8.526;2023-06-19T02:29:39;98552.97;;;15.52;50.55
27685;BME280;46113;50.130;8.526;2023-06-19T02:32:06;98555.50;;;15.43;50.48
27685;BME280;46113;50.130;8.526;2023-06-19T02:34:33;98555.03;;;15.28;49.79
27685;BME280;46113;50.130;8.526;2023-06-19T02:37:00;98563.69;;;15.20;50.20
27685;BME280;46113;50.130;8.526;2023-06-19T02:39:27;98569.47;;;15.26;50.65
27685;BME280;46113;50.130;8.526;2023-06-19T02:41:54;98570.44;;;15.24;51.22
27685;BME280;46113;50.130;8.526;2023-06-19T02:44:20;98574.91;;;15.24;49.96
27685;BME280;46113;50.130;8.526;2023-06-19T02:46:47;98577.59;;;15.24;50.03
27685;BME280;46113;50.130;8.526;2023-06-19T02:49:14;98585.72;;;15.22;49.98
27685;BME280;46113;50.130;8.526;2023-06-19T02:51:42;98591.50;;;15.37;51.17
27685;BME280;46113;50.130;8.526;2023-06-19T02:54:09;98590.00;;;15.55;48.64
27685;BME280;46113;50.130;8.526;2023-06-19T02:56:35;98592.72;;;15.74;50.42
27685;BME280;46113;50.130;8.526;2023-06-19T02:59:02;98591.44;;;15.79;51.01
27685;BME280;46113;50.130;8.526;2023-06-19T03:01:29;98597.47;;;15.71;51.46
27685;BME280;46113;50.130;8.526;2023-06-19T03:03:56;98596.31;;;15.63;50.01
27685;BME280;46113;50.130;8.526;2023-06-19T03:06:22;98597.16;;;15.54;50.28
27685;BME280;46113;50.130;8.526;2023-06-19T03:08:49;98596.03;;;15.57;51.12
27685;BME280;46113;50.130;8.526;2023-06-19T03:11:17;98600.53;;;15.56;50.39
27685;BME280;46113;50.130;8.526;2023-06-19T03:13:49;98611.06;;;15.58;50.89
27685;BME280;46113;50.130;8.526;2023-06-19T03:16:17;98612.75;;;15.59;51.15
27685;BME280;46113;50.130;8.526;2023-06-19T03:18:44;98620.44;;;15.62;50.50
27685;BME280;46113;50.130;8.526;2023-06-19T03:21:12;98617.53;;;15.65;49.93
27685;BME280;46113;50.130;8.526;2023-06-19T03:23:40;98621.59;;;15.69;48.74
27685;BME280;46113;50.130;8.526;2023-06-19T03:26:10;98617.41;;;15.76;48.91
27685;BME280;46113;50.130;8.526;2023-06-19T03:28:39;98611.66;;;15.81;49.33
27685;BME280;46113;50.130;8.526;2023-06-19T03:31:07;98617.81;;;15.82;49.67
27685;BME280;46113;50.130;8.526;2023-06-19T03:33:35;98623.44;;;15.79;49.94
27685;BME280;46113;50.130;8.526;2023-06-19T03:36:04;98624.00;;;15.82;49.94
27685;BME280;46113;50.130;8.526;2023-06-19T03:38:40;98640.19;;;15.91;50.59
27685;BME280;46113;50.130;8.526;2023-06-19T03:41:10;98639.22;;;16.01;49.67
27685;BME280;46113;50.130;8.526;2023-06-19T03:43:37;98637.53;;;16.10;49.43
27685;BME280;46113;50.130;8.526;2023-06-19T03:46:04;98640.06;;;16.12;50.04
27685;BME280;46113;50.130;8.526;2023-06-19T03:48:31;98637.53;;;16.20;49.88
27685;BME280;46113;50.130;8.526;2023-06-19T03:50:59;98638.78;;;16.16;47.50
27685;BME280;46113;50.130;8.526;2023-06-19T03:53:26;98641.88;;;16.41;47.30
27685;BME280;46113;50.130;8.526;2023-06-19T03:55:54;98647.34;;;16.49;48.13
27685;BME280;46113;50.130;8.526;2023-06-19T03:58:22;98661.25;;;16.53;48.22
27685;BME280;46113;50.130;8.526;2023-06-19T04:00:58;98665.84;;;16.71;45.38
27685;BME280;46113;50.130;8.526;2023-06-19T04:03:36;98661.09;;;16.84;46.29
27685;BME280;46113;50.130;8.526;2023-06-19T04:06:27;98662.75;;;16.95;47.82
27685;BME280;46113;50.130;8.526;2023-06-19T04:08:54;98668.34;;;17.02;48.43
27685;BME280;46113;50.130;8.526;2023-06-19T04:11:39;98673.25;;;17.06;48.68
27685;BME280;46113;50.130;8.526;2023-06-19T04:14:05;98681.16;;;16.98;49.22
27685;BME280;46113;50.130;8.526;2023-06-19T04:16:32;98674.66;;;17.11;44.34
27685;BME280;46113;50.130;8.526;2023-06-19T04:19:05;98689.97;;;17.46;46.43
27685;BME280;46113;50.130;8.526;2023-06-19T04:21:50;98685.69;;;17.73;44.93
27685;BME280;46113;50.130;8.526;2023-06-19T04:24:20;98683.47;;;17.87;44.75
27685;BME280;46113;50.130;8.526;2023-06-19T04:27:01;98690.16;;;18.19;45.30
27685;BME280;46113;50.130;8.526;2023-06-19T04:29:29;98693.31;;;18.33;45.37
27685;BME280;46113;50.130;8.526;2023-06-19T04:31:59;98696.31;;;18.48;44.13
27685;BME280;46113;50.130;8.526;2023-06-19T04:34:31;98706.59;;;18.79;44.35
27685;BME280;46113;50.130;8.526;2023-06-19T04:37:01;98712.53;;;18.91;45.69
27685;BME280;46113;50.130;8.526;2023-06-19T04:39:28;98720.81;;;19.24;46.85
27685;BME280;46113;50.130;8.526;2023-06-19T04:41:58;98712.16;;;19.30;45.60
27685;BME280;46113;50.130;8.526;2023-06-19T04:44:25;98718.69;;;19.36;43.93
27685;BME280;46113;50.130;8.526;2023-06-19T04:46:54;98715.84;;;19.72;46.72
27685;BME280;46113;50.130;8.526;2023-06-19T04:49:32;98720.97;;;19.84;43.96
27685;BME280;46113;50.130;8.526;2023-06-19T04:52:11;98732.72;;;19.91;43.48
27685;BME280;46113;50.130;8.526;2023-06-19T04:54:54;98733.75;;;19.98;43.55
27685;BME280;46113;50.130;8.526;2023-06-19T04:57:40;98744.03;;;19.77;42.78
27685;BME280;46113;50.130;8.526;2023-06-19T05:00:22;98746.25;;;20.24;45.44
27685;BME280;46113;50.130;8.526;2023-06-19T05:03:20;98746.44;;;20.48;44.77
27685;BME280;46113;50.130;8.526;2023-06-19T05:10:19;98762.16;;;20.26;44.25
27685;BME280;46113;50.130;8.526;2023-06-19T05:13:29;98761.59;;;20.57;44.42
27685;BME280;46113;50.130;8.526;2023-06-19T05:17:04;98765.09;;;20.99;42.50
27685;BME280;46113;50.130;8.526;2023-06-19T05:19:36;98767.78;;;21.08;42.62
27685;BME280;46113;50.130;8.526;2023-06-19T05:22:07;98772.50;;;20.97;42.63
27685;BME280;46113;50.130;8.526;2023-06-19T05:31:59;98768.34;;;21.76;42.27
27685;BME280;46113;50.130;8.526;2023-06-19T05:34:26;98772.75;;;22.41;41.08
27685;BME280;46113;50.130;8.526;2023-06-19T05:36:53;98777.97;;;22.89;40.74
27685;BME280;46113;50.130;8.526;2023-06-19T05:39:20;98768.69;;;22.45;41.04
27685;BME280;46113;50.130;8.526;2023-06-19T05:41:46;98771.34;;;22.77;41.75
27685;BME280;46113;50.130;8.526;2023-06-19T05:44:13;98779.19;;;22.86;41.54
27685;BME280;46113;50.130;8.526;2023-06-19T05:46:43;98779.41;;;23.00;40.92
27685;BME280;46113;50.130;8.526;2023-06-19T05:49:10;98769.63;;;23.67;39.85
27685;BME280;46113;50.130;8.526;2023-06-19T05:51:37;98770.41;;;23.46;40.12
27685;BME280;46113;50.130;8.526;2023-06-19T05:54:03;98772.72;;;23.95;39.08
27685;BME280;46113;50.130;8.526;2023-06-19T05:56:31;98776.34;;;24.39;39.18
27685;BME280;46113;50.130;8.526;2023-06-19T05:59:00;98779.41;;;24.36;38.59
27685;BME280;46113;50.130;8.526;2023-06-19T06:01:31;98783.78;;;24.52;38.59
27685;BME280;46113;50.130;8.526;2023-06-19T06:03:58;98786.94;;;24.55;38.17
27685;BME280;46113;50.130;8.526;2023-06-19T06:06:24;98795.88;;;24.56;37.32
27685;BME280;46113;50.130;8.526;2023-06-19T06:08:52;98800.38;;;24.12;38.39
27685;BME280;46113;50.130;8.526;2023-06-19T06:11:19;98795.69;;;24.20;38.67
27685;BME280;46113;50.130;8.526;2023-06-19T06:13:46;98793.38;;;23.72;38.80
27685;BME280;46113;50.130;8.526;2023-06-19T06:16:13;98796.94;;;23.88;39.31
27685;BME280;46113;50.130;8.526;2023-06-19T06:18:40;98795.53;;;24.88;38.77
27685;BME280;46113;50.130;8.526;2023-06-19T06:21:07;98784.19;;;25.49;36.79
27685;BME280;46113;50.130;8.526;2023-06-19T06:23:34;98781.09;;;26.43;34.94
27685;BME280;46113;50.130;8.526;2023-06-19T06:26:01;98789.72;;;26.81;35.09
27685;BME280;46113;50.130;8.526;2023-06-19T06:28:29;98780.75;;;28.53;33.34
27685;BME280;46113;50.130;8.526;2023-06-19T06:30:56;98776.63;;;27.98;33.47
27685;BME280;46113;50.130;8.526;2023-06-19T06:33:23;98778.22;;;28.19;32.68
27685;BME280;46113;50.130;8.526;2023-06-19T06:35:50;98781.13;;;28.24;32.19
27685;BME280;46113;50.130;8.526;2023-06-19T06:38:18;98772.75;;;28.65;32.19
27685;BME280;46113;50.130;8.526;2023-06-19T06:40:45;98780.13;;;28.58;32.12
27685;BME280;46113;50.130;8.526;2023-06-19T06:43:12;98783.88;;;28.11;32.44
27685;BME280;46113;50.130;8.526;2023-06-19T06:45:39;98780.63;;;28.34;32.40
27685;BME280;46113;50.130;8.526;2023-06-19T06:48:09;98786.09;;;27.75;33.77
27685;BME280;46113;50.130;8.526;2023-06-19T06:50:36;98794.53;;;28.51;32.28
27685;BME280;46113;50.130;8.526;2023-06-19T06:53:03;98792.44;;;28.60;31.93
27685;BME280;46113;50.130;8.526;2023-06-19T06:55:30;98792.88;;;28.11;31.86
27685;BME280;46113;50.130;8.526;2023-06-19T06:57:56;98796.53;;;28.31;33.01
27685;BME280;46113;50.130;8.526;2023-06-19T07:00:23;98798.91;;;27.27;33.31
27685;BME280;46113;50.130;8.526;2023-06-19T07:02:50;98799.06;;;27.73;33.19
27685;BME280;46113;50.130;8.526;2023-06-19T07:05:18;98795.50;;;28.96;32.00
27685;BME280;46113;50.130;8.526;2023-06-19T07:07:45;98808.06;;;28.33;32.11
27685;BME280;46113;50.130;8.526;2023-06-19T07:10:11;98799.66;;;29.50;31.80
27685;BME280;46113;50.130;8.526;2023-06-19T07:12:46;98803.78;;;29.33;30.82
27685;BME280;46113;50.130;8.526;2023-06-19T07:15:13;98800.78;;;29.67;30.13
27685;BME280;46113;50.130;8.526;2023-06-19T07:17:39;98811.06;;;28.89;30.91
27685;BME280;46113;50.130;8.526;2023-06-19T07:20:07;98816.47;;;30.71;29.46
27685;BME280;46113;50.130;8.526;2023-06-19T07:22:33;98809.16;;;30.03;29.80
27685;BME280;46113;50.130;8.526;2023-06-19T07:25:00;98798.47;;;30.20;30.15
27685;BME280;46113;50.130;8.526;2023-06-19T07:27:27;98799.16;;;29.78;29.86
27685;BME280;46113;50.130;8.526;2023-06-19T07:29:55;98785.81;;;30.26;30.04
27685;BME280;46113;50.130;8.526;2023-06-19T07:32:22;98785.81;;;31.11;28.46
27685;BME280;46113;50.130;8.526;2023-06-19T07:34:49;98785.03;;;30.68;30.01
27685;BME280;46113;50.130;8.526;2023-06-19T07:37:16;98790.28;;;31.89;27.69
27685;BME280;46113;50.130;8.526;2023-06-19T07:39:46;98786.97;;;29.81;30.04
27685;BME280;46113;50.130;8.526;2023-06-19T07:42:14;98782.72;;;32.08;27.82
27685;BME280;46113;50.130;8.526;2023-06-19T07:44:41;98777.41;;;32.60;26.59
27685;BME280;46113;50.130;8.526;2023-06-19T07:47:11;98791.53;;;32.40;26.80
27685;BME280;46113;50.130;8.526;2023-06-19T07:49:42;98786.19;;;32.16;26.89
27685;BME280;46113;50.130;8.526;2023-06-19T07:52:09;98795.28;;;32.51;26.73
27685;BME280;46113;50.130;8.526;2023-06-19T07:54:36;98796.53;;;32.14;26.99
27685;BME280;46113;50.130;8.526;2023-06-19T07:57:03;98797.38;;;32.02;26.83
27685;BME280;46113;50.130;8.526;2023-06-19T07:59:29;98794.13;;;32.17;27.46
27685;BME280;46113;50.130;8.526;2023-06-19T08:01:56;98799.72;;;33.77;25.54
27685;BME280;46113;50.130;8.526;2023-06-19T08:04:23;98807.97;;;32.57;26.95
27685;BME280;46113;50.130;8.526;2023-06-19T08:06:50;98797.22;;;32.21;27.77
27685;BME280;46113;50.130;8.526;2023-06-19T08:09:16;98803.00;;;33.96;25.61
27685;BME280;46113;50.130;8.526;2023-06-19T08:11:43;98807.34;;;30.77;28.31
27685;BME280;46113;50.130;8.526;2023-06-19T08:14:10;98800.34;;;30.20;29.15
27685;BME280;46113;50.130;8.526;2023-06-19T08:16:36;98794.13;;;31.52;28.04
27685;BME280;46113;50.130;8.526;2023-06-19T08:19:03;98797.59;;;32.01;26.84
27685;BME280;46113;50.130;8.526;2023-06-19T08:21:30;98808.50;;;32.54;27.01
27685;BME280;46113;50.130;8.526;2023-06-19T08:23:57;98797.09;;;31.39;28.07
27685;BME280;46113;50.130;8.526;2023-06-19T08:26:23;98797.78;;;30.56;29.52
27685;BME280;46113;50.130;8.526;2023-06-19T08:28:50;98806.75;;;32.18;27.50
27685;BME280;46113;50.130;8.526;2023-06-19T08:31:17;98811.72;;;33.71;25.61
27685;BME280;46113;50.130;8.526;2023-06-19T08:33:43;98812.03;;;33.74;25.13
27685;BME280;46113;50.130;8.526;2023-06-19T08:36:10;98807.47;;;34.80;24.70
27685;BME280;46113;50.130;8.526;2023-06-19T08:38:37;98815.53;;;34.92;23.61
27685;BME280;46113;50.130;8.526;2023-06-19T08:41:04;98813.59;;;32.79;25.56
27685;BME280;46113;50.130;8.526;2023-06-19T08:43:31;98820.38;;;31.77;27.27
27685;BME280;46113;50.130;8.526;2023-06-19T08:46:13;98828.97;;;30.29;30.43
27685;BME280;46113;50.130;8.526;2023-06-19T08:48:41;98829.94;;;29.41;30.47
27685;BME280;46113;50.130;8.526;2023-06-19T08:51:10;98827.09;;;30.30;30.03
27685;BME280;46113;50.130;8.526;2023-06-19T08:53:45;98827.47;;;28.36;32.60
27685;BME280;46113;50.130;8.526;2023-06-19T08:56:12;98825.22;;;28.26;32.55
27685;BME280;46113;50.130;8.526;2023-06-19T08:58:39;98830.75;;;28.06;34.67
27685;BME280;46113;50.130;8.526;2023-06-19T09:01:05;98825.28;;;28.91;32.60
27685;BME280;46113;50.130;8.526;2023-06-19T09:03:32;98829.72;;;29.17;32.53
27685;BME280;46113;50.130;8.526;2023-06-19T09:06:06;98834.97;;;30.69;29.93
27685;BME280;46113;50.130;8.526;2023-06-19T09:08:34;98831.53;;;31.76;29.06
27685;BME280;46113;50.130;8.526;2023-06-19T09:11:04;98842.53;;;32.46;28.17
27685;BME280;46113;50.130;8.526;2023-06-19T09:13:32;98830.94;;;31.26;28.77
27685;BME280;46113;50.130;8.526;2023-06-19T09:16:03;98839.38;;;31.72;28.84
27685;BME280;46113;50.130;8.526;2023-06-19T09:18:32;98834.75;;;31.61;28.83
27685;BME280;46113;50.130;8.526;2023-06-19T09:21:15;98825.38;;;32.51;27.24
27685;BME280;46113;50.130;8.526;2023-06-19T09:23:42;98833.75;;;32.73;26.47
27685;BME280;46113;50.130;8.526;2023-06-19T09:26:10;98835.81;;;31.24;29.18
27685;BME280;46113;50.130;8.526;2023-06-19T09:28:40;98829.41;;;31.78;28.70
27685;BME280;46113;50.130;8.526;2023-06-19T09:31:08;98850.31;;;33.12;26.93
27685;BME280;46113;50.130;8.526;2023-06-19T09:33:36;98844.41;;;33.21;27.21
27685;BME280;46113;50.130;8.526;2023-06-19T09:36:05;98837.16;;;30.79;29.32
27685;BME280;46113;50.130;8.526;2023-06-19T09:38:36;98841.66;;;30.23;30.30
27685;BME280;46113;50.130;8.526;2023-06-19T09:41:07;98832.44;;;32.93;28.06
27685;BME280;46113;50.130;8.526;2023-06-19T09:44:06;98838.13;;;33.20;27.21
27685;BME280;46113;50.130;8.526;2023-06-19T09:46:41;98837.94;;;32.34;27.84
27685;BME280;46113;50.130;8.526;2023-06-19T09:49:12;98839.59;;;33.45;27.14
27685;BME280;46113;50.130;8.526;2023-06-19T09:51:41;98845.97;;;33.34;27.19
27685;BME280;46113;50.130;8.526;2023-06-19T09:54:09;98836.47;;;30.34;30.17
27685;BME280;46113;50.130;8.526;2023-06-19T09:56:37;98833.47;;;30.23;30.87
27685;BME280;46113;50.130;8.526;2023-06-19T09:59:05;98827.13;;;29.92;31.74
27685;BME280;46113;50.130;8.526;2023-06-19T10:01:36;98828.72;;;29.05;32.04
27685;BME280;46113;50.130;8.526;2023-06-19T10:04:08;98831.81;;;28.05;33.77
27685;BME280;46113;50.130;8.526;2023-06-19T10:06:47;98822.59;;;27.93;34.65
27685;BME280;46113;50.130;8.526;2023-06-19T10:09:15;98825.00;;;27.48;35.63
27685;BME280;46113;50.130;8.526;2023-06-19T10:11:51;98821.63;;;27.80;34.72
27685;BME280;46113;50.130;8.526;2023-06-19T10:14:22;98826.41;;;26.70;36.84
27685;BME280;46113;50.130;8.526;2023-06-19T10:16:50;98818.94;;;27.19;35.89
27685;BME280;46113;50.130;8.526;2023-06-19T10:19:20;98835.00;;;27.68;35.93
27685;BME280;46113;50.130;8.526;2023-06-19T10:21:48;98840.84;;;27.58;35.70
27685;BME280;46113;50.130;8.526;2023-06-19T10:24:18;98849.84;;;27.18;36.20
27685;BME280;46113;50.130;8.526;2023-06-19T10:29:25;98842.41;;;26.02;37.91
27685;BME280;46113;50.130;8.526;2023-06-19T10:31:54;98840.94;;;25.64;38.42
27685;BME280;46113;50.130;8.526;2023-06-19T10:34:20;98843.44;;;25.37;39.16
27685;BME280;46113;50.130;8.526;2023-06-19T10:36:47;98844.97;;;25.75;39.12
27685;BME280;46113;50.130;8.526;2023-06-19T10:39:14;98837.63;;;26.04;38.63
27685;BME280;46113;50.130;8.526;2023-06-19T10:41:42;98835.47;;;25.86;39.25
27685;BME280;46113;50.130;8.526;2023-06-19T10:44:09;98843.31;;;26.16;39.96
27685;BME280;46113;50.130;8.526;2023-06-19T10:46:39;98834.84;;;25.62;40.41
27685;BME280;46113;50.130;8.526;2023-06-19T10:49:07;98836.66;;;26.19;39.23
27685;BME280;46113;50.130;8.526;2023-06-19T10:51:38;98832.44;;;26.10;40.78
27685;BME280;46113;50.130;8.526;2023-06-19T10:54:05;98819.47;;;26.54;38.16
27685;BME280;46113;50.130;8.526;2023-06-19T10:56:32;98829.13;;;26.77;38.19
27685;BME280;46113;50.130;8.526;2023-06-19T10:59:05;98833.78;;;26.96;36.73
27685;BME280;46113;50.130;8.526;2023-06-19T11:01:40;98830.41;;;26.94;37.09
27685;BME280;46113;50.130;8.526;2023-06-19T11:04:09;98826.59;;;26.62;37.39
27685;BME280;46113;50.130;8.526;2023-06-19T11:06:37;98832.84;;;26.55;38.21
27685;BME280;46113;50.130;8.526;2023-06-19T11:09:06;98833.94;;;25.48;38.87
27685;BME280;46113;50.130;8.526;2023-06-19T11:11:46;98836.38;;;26.07;39.03
27685;BME280;46113;50.130;8.526;2023-06-19T11:14:15;98835.59;;;25.49;38.88
27685;BME280;46113;50.130;8.526;2023-06-19T11:16:44;98837.44;;;26.06;38.66
27685;BME280;46113;50.130;8.526;2023-06-19T11:19:17;98833.00;;;26.47;38.70
27685;BME280;46113;50.130;8.526;2023-06-19T11:21:49;98834.56;;;26.77;38.26
27685;BME280;46113;50.130;8.526;2023-06-19T11:24:16;98830.38;;;26.74;37.60
27685;BME280;46113;50.130;8.526;2023-06-19T11:26:45;98829.16;;;26.97;38.50
27685;BME280;46113;50.130;8.526;2023-06-19T11:29:21;98827.59;;;26.54;38.05
27685;BME280;46113;50.130;8.526;2023-06-19T11:31:49;98831.00;;;26.76;38.28
27685;BME280;46113;50.130;8.526;2023-06-19T11:34:17;98832.81;;;26.49;38.35
27685;BME280;46113;50.130;8.526;2023-06-19T11:36:47;98821.56;;;26.03;37.95
27685;BME280;46113;50.130;8.526;2023-06-19T11:39:15;98826.63;;;26.13;39.03
27685;BME280;46113;50.130;8.526;2023-06-19T11:41:45;98829.47;;;25.34;39.34
27685;BME280;46113;50.130;8.526;2023-06-19T11:44:12;98835.03;;;25.54;39.48
27685;BME280;46113;50.130;8.526;2023-06-19T11:46:40;98823.84;;;25.64;39.62
27685;BME280;46113;50.130;8.526;2023-06-19T11:49:16;98830.28;;;25.63;40.13
27685;BME280;46113;50.130;8.526;2023-06-19T11:51:46;98817.75;;;25.55;38.77
27685;BME280;46113;50.130;8.526;2023-06-19T11:54:14;98818.78;;;25.83;39.20
27685;BME280;46113;50.130;8.526;2023-06-19T11:56:41;98817.75;;;25.55;38.95
27685;BME280;46113;50.130;8.526;2023-06-19T11:59:08;98823.09;;;26.19;38.69
27685;BME280;46113;50.130;8.526;2023-06-19T12:01:36;98821.19;;;26.75;38.70
27685;BME280;46113;50.130;8.526;2023-06-19T12:04:03;98817.88;;;26.73;37.60
27685;BME280;46113;50.130;8.526;2023-06-19T12:06:31;98818.78;;;26.32;38.14
27685;BME280;46113;50.130;8.526;2023-06-19T12:08:58;98808.66;;;26.61;37.47
27685;BME280;46113;50.130;8.526;2023-06-19T12:11:25;98803.84;;;26.00;39.14
27685;BME280;46113;50.130;8.526;2023-06-19T12:13:52;98807.78;;;26.47;38.43
27685;BME280;46113;50.130;8.526;2023-06-19T12:16:20;98807.38;;;26.43;38.44
27685;BME280;46113;50.130;8.526;2023-06-19T12:18:47;98816.13;;;26.45;37.86
27685;BME280;46113;50.130;8.526;2023-06-19T12:21:13;98806.50;;;26.36;37.85
27685;BME280;46113;50.130;8.526;2023-06-19T12:23:58;98818.19;;;26.36;37.99
27685;BME280;46113;50.130;8.526;2023-06-19T12:26:25;98806.50;;;26.36;37.26
27685;BME280;46113;50.130;8.526;2023-06-19T12:28:52;98818.66;;;26.04;38.38
27685;BME280;46113;50.130;8.526;2023-06-19T12:31:20;98820.16;;;26.63;37.55
27685;BME280;46113;50.130;8.526;2023-06-19T12:33:47;98813.97;;;26.27;38.29
27685;BME280;46113;50.130;8.526;2023-06-19T12:36:15;98808.19;;;26.43;37.88
27685;BME280;46113;50.130;8.526;2023-06-19T12:38:41;98808.22;;;26.50;37.29
27685;BME280;46113;50.130;8.526;2023-06-19T12:41:08;98812.47;;;26.87;37.29
27685;BME280;46113;50.130;8.526;2023-06-19T12:43:35;98809.78;;;26.24;37.91
27685;BME280;46113;50.130;8.526;2023-06-19T12:46:02;98811.47;;;25.83;38.32
27685;BME280;46113;50.130;8.526;2023-06-19T12:48:29;98814.25;;;25.97;39.19
27685;BME280;46113;50.130;8.526;2023-06-19T12:50:56;98812.13;;;25.85;38.68
27685;BME280;46113;50.130;8.526;2023-06-19T12:53:22;98812.16;;;25.92;38.55
27685;BME280;46113;50.130;8.526;2023-06-19T12:55:53;98809.22;;;25.58;39.45
27685;BME280;46113;50.130;8.526;2023-06-19T12:58:28;98814.56;;;25.73;39.94
27685;BME280;46113;50.130;8.526;2023-06-19T13:00:57;98809.44;;;25.57;39.56
27685;BME280;46113;50.130;8.526;2023-06-19T13:03:24;98809.78;;;26.24;38.73
27685;BME280;46113;50.130;8.526;2023-06-19T13:05:51;98808.63;;;26.40;38.92
27685;BME280;46113;50.130;8.526;2023-06-19T13:08:17;98808.00;;;26.45;38.16
27685;BME280;46113;50.130;8.526;2023-06-19T13:10:44;98808.63;;;26.54;38.74
27685;BME280;46113;50.130;8.526;2023-06-19T13:13:12;98800.09;;;26.50;36.65
27685;BME280;46113;50.130;8.526;2023-06-19T13:15:39;98801.53;;;26.53;37.97
27685;BME280;46113;50.130;8.526;2023-06-19T13:18:06;98799.63;;;25.91;37.32
27685;BME280;46113;50.130;8.526;2023-06-19T13:20:33;98794.75;;;26.15;38.01
27685;BME280;46113;50.130;8.526;2023-06-19T13:23:00;98800.94;;;26.58;37.40
27685;BME280;46113;50.130;8.526;2023-06-19T13:25:26;98805.19;;;26.87;37.23
27685;BME280;46113;50.130;8.526;2023-06-19T13:27:53;98802.47;;;27.28;37.38